Airfield :
LOGIN :

Register | Disclaimer

   EN    FR    IT 

 










Legend :    VFR   Marginal VFR   IFR   Intensive IFR   Very Intensive IFR
Visi :
Ceiling :
>= 8 km
>= 3000ft
5 to 8 km
1000 to 3000 ft
1500m to 5 km
500 to 1000 ft
800 to 1500m
200 to 500 ft
< 800m
< 200 ft
Symbols :   Thunderstorms  Fog  Heavy snow  Heavy precipitations  Wind > 20 kt
SIGMETs :     Misc.  Thunderstorms  Icing  Turbulence  Mountain Waves  Volcanic Ashes






- Airport Elevation : 255 ft


ENGC - Gullfaks C oil platform

CURRENT METAR :
  • 090750Z 24016KT 0800 FG BKN005 13/13 Q1024 W11/S/

EXPIRED METARs :
  • 090720Z 24013KT 0200 FG VV002 13/13 Q1024 W11/S/
  • 090650Z 23011KT 0100 FG VV002 13/13 Q1024 W11/S/
  • 090620Z 24015KT 0100 FG VV002 13/13 Q1024 W11/S/
  • 090550Z 25015KT 0100 FG VV002 13/13 Q1024 W11/S/
  • 090520Z 24014KT 0100 FG VV002 13/13 Q1024 W11/S/

AMD TAF ENGC
Valid from the 09 at 06:00 until the 10 at 06:00 UTC


0906/1006 24015KT 4000 -RADZ SCT005 BKN008
BECMG 0912/0915 21026KT
TEMPO 0906/0913 0100 RADZ FG VV001
PROB40
TEMPO 0913/0919 2000 RA BKN009
BECMG 0915/0917 FEW010 BKN018



MET'MAP, your aeronautical weather chart ! - Copyright ORBIFLY December 2007 - Disclaimer

ORBIFLY MET'MAP TEAM :

Programming & Development : Alexandra Zaïnal
Original concept : Baudouin d'Aumeries
Technical & hardware support : Manuel Goepfert
Assistance : Marc-Olivier Méhu




SOURCES & CREDITS :

   NOAA